Oktaha, Oklahoma
Current Conditions -  °F | °C
As of 5:53 PM on Sunday 25 Jan 2015 (Local Time) from KMKO Reporting Station
Overcast Overcast  
Wind Chill: 50°   Ceiling: 5000
Heat Index: 50°   Visibility: 10mi
Dew Point: 31°   Wind: 17mph
Humidity: 48%   Direction: 330°NNW
Pressure: 30.05"   Gusts: 28mph
Location:  35.58°N, 95.47°W
Report Text: KMKO 252353Z AUTO 33015G24KT 10SM OVC050 10/M01 A3005 RMK AO2 PK WND 32028/2304 RAB2254E03 SLP176 P0000 60000 T01001006 10122 20100 51030
Loading
Personal Weather Stations






























Interactive Weather Map New forecast layout! Learn more

10-Day Weather Forecast

Advertisements
Track Severe Weather on mobile